Time;durP1;ratioP1;P1;durP2;ratioP2;P2;SDS_P1;SDS_P2;PMS_P1;PMS_P2;Temp;Humidity;BMP_temperature;BMP_pressure;BME280_temperature;BME280_humidity;BME280_pressure;Samples;Min_cycle;Max_cycle;Signal;HPM_P1;HPM_P2
2022/11/22 00:00:32;;;;;;;0.00;0.00;;;4.90;94.40;;;;;;5069678;28;20431;-75
2022/11/22 00:02:59;;;;;;;0.20;0.20;;;4.90;79.90;;;;;;5071502;28;20503;-75
2022/11/22 00:05:28;;;;;;;0.10;0.10;;;4.90;67.00;;;;;;5061694;28;20436;-75
2022/11/22 00:07:55;;;;;;;0.20;0.20;;;4.90;50.20;;;;;;5064943;28;20428;-75
2022/11/22 00:10:22;;;;;;;0.10;0.10;;;4.90;19.80;;;;;;5067476;28;20440;-75
2022/11/22 00:12:53;;;;;;;0.00;0.00;;;4.90;6.90;;;;;;5062513;28;20439;-75
2022/11/22 00:15:20;;;;;;;0.10;0.10;;;4.90;1.00;;;;;;5062017;28;20455;-76
2022/11/22 00:17:47;;;;;;;0.10;0.10;;;4.90;1.00;;;;;;5072902;28;20528;-76
2022/11/22 00:20:14;;;;;;;0.40;0.40;;;4.90;1.00;;;;;;5063276;28;20461;-74
2022/11/22 00:22:44;;;;;;;0.25;0.25;;;4.90;1.00;;;;;;5065127;28;20431;-76
2022/11/22 00:25:11;;;;;;;0.10;0.10;;;4.90;1.00;;;;;;5063556;28;20427;-76
2022/11/22 00:27:41;;;;;;;0.30;0.30;;;5.00;1.00;;;;;;5054559;28;20507;-75
2022/11/22 00:30:08;;;;;;;0.10;0.10;;;4.90;1.00;;;;;;5060978;28;20471;-74
2022/11/22 00:32:38;;;;;;;0.20;0.20;;;5.00;1.00;;;;;;5063568;28;20444;-74
2022/11/22 00:35:05;;;;;;;0.28;0.28;;;4.90;1.00;;;;;;5067563;28;20430;-74
2022/11/22 00:37:32;;;;;;;0.30;0.30;;;4.90;1.00;;;;;;5066182;28;20518;-74
2022/11/22 00:40:02;;;;;;;0.20;0.20;;;4.90;1.00;;;;;;5068557;28;20451;-74
2022/11/22 00:42:29;;;;;;;0.10;0.10;;;4.90;1.00;;;;;;5058484;28;20472;-74
2022/11/22 00:44:55;;;;;;;0.23;0.23;;;5.00;1.00;;;;;;5061932;28;20425;-75
2022/11/22 00:47:22;;;;;;;7.60;0.40;;;5.00;1.00;;;;;;5064297;28;20603;-76
2022/11/22 00:49:49;;;;;;;0.22;0.22;;;5.00;1.00;;;;;;5065754;28;20437;-76
2022/11/22 00:52:16;;;;;;;0.50;0.50;;;5.00;1.00;;;;;;5067576;28;21000;-75
2022/11/22 00:54:44;;;;;;;0.20;0.20;;;5.10;1.00;;;;;;5057455;28;20429;-75
2022/11/22 00:57:18;;;;;;;1.85;0.52;;;5.20;1.00;;;;;;5065310;28;20526;-75
2022/11/22 00:59:48;;;;;;;0.20;0.20;;;5.20;1.00;;;;;;5058153;28;20761;-75
2022/11/22 01:02:15;;;;;;;0.05;0.05;;;5.20;1.00;;;;;;5062060;28;20435;-75
2022/11/22 01:04:41;;;;;;;0.50;0.50;;;5.20;1.00;;;;;;5062722;28;20430;-75
2022/11/22 01:07:09;;;;;;;0.70;0.50;;;5.20;1.00;;;;;;5069996;28;20433;-77
2022/11/22 01:09:36;;;;;;;1.30;0.30;;;5.30;1.00;;;;;;5060986;28;20428;-75
2022/11/22 01:12:03;;;;;;;0.10;0.10;;;5.30;1.00;;;;;;5066083;28;20555;-74
2022/11/22 01:14:30;;;;;;;2.90;0.30;;;5.30;1.00;;;;;;5063883;28;20436;-74
2022/11/22 01:16:56;;;;;;;0.25;0.25;;;5.30;1.00;;;;;;5066295;28;20436;-75
2022/11/22 01:19:23;;;;;;;1.20;0.10;;;5.30;1.00;;;;;;5066754;28;20439;-75
2022/11/22 01:21:50;;;;;;;0.65;0.43;;;5.40;1.00;;;;;;5059733;28;20430;-76
2022/11/22 01:24:17;;;;;;;0.10;0.10;;;5.40;1.00;;;;;;5064943;28;20915;-75
2022/11/22 01:26:44;;;;;;;0.17;0.17;;;5.40;1.00;;;;;;5055384;28;20425;-75
2022/11/22 01:29:10;;;;;;;0.40;0.40;;;5.40;1.00;;;;;;5058871;28;20423;-74
2022/11/22 01:31:37;;;;;;;0.30;0.30;;;5.40;1.00;;;;;;5059145;28;20429;-74
2022/11/22 01:34:07;;;;;;;0.20;0.20;;;5.40;1.00;;;;;;5053415;28;20439;-74
2022/11/22 01:36:34;;;;;;;2.00;0.50;;;5.40;1.00;;;;;;5064706;28;20423;-74
2022/11/22 01:39:01;;;;;;;0.22;0.22;;;5.40;1.00;;;;;;5062458;28;20442;-74
2022/11/22 01:41:27;;;;;;;0.70;0.30;;;5.40;1.00;;;;;;5069106;28;20431;-74
2022/11/22 01:43:54;;;;;;;2.70;0.30;;;5.40;1.00;;;;;;5053741;28;20427;-74
2022/11/22 01:46:33;;;;;;;0.10;0.10;;;5.40;1.00;;;;;;5059319;28;20460;-74
2022/11/22 01:49:16;;;;;;;0.20;0.17;;;5.50;1.00;;;;;;5066683;28;20426;-74
2022/11/22 01:51:46;;;;;;;0.10;0.10;;;5.50;1.00;;;;;;5064344;28;20771;-75
2022/11/22 01:54:17;;;;;;;0.20;0.20;;;5.40;1.00;;;;;;5064657;28;20853;-75
2022/11/22 01:56:51;;;;;;;0.30;0.30;;;5.40;1.00;;;;;;5066560;28;20431;-74
2022/11/22 01:59:23;;;;;;;0.10;0.10;;;5.40;1.00;;;;;;5068076;28;20431;-74
2022/11/22 02:01:50;;;;;;;0.35;0.35;;;5.40;1.00;;;;;;5061794;28;20483;-75
2022/11/22 02:04:18;;;;;;;0.17;0.17;;;5.40;1.00;;;;;;5065601;28;20431;-74
2022/11/22 02:06:55;;;;;;;1.40;0.90;;;5.40;1.00;;;;;;5064998;28;20448;-74
2022/11/22 02:09:22;;;;;;;0.20;0.20;;;5.50;1.00;;;;;;5062197;28;20493;-74
2022/11/22 02:11:55;;;;;;;0.53;0.53;;;5.50;1.00;;;;;;5067106;28;20427;-74
2022/11/22 02:14:24;;;;;;;0.22;0.22;;;5.40;1.00;;;;;;5060968;28;21139;-74
2022/11/22 02:16:54;;;;;;;0.22;0.22;;;5.40;12.00;;;;;;5065891;28;20424;-74
2022/11/22 02:19:36;;;;;;;0.32;0.25;;;5.40;28.50;;;;;;5062036;28;20460;-74
2022/11/22 02:22:27;;;;;;;0.30;0.30;;;5.40;39.10;;;;;;5062278;28;20995;-74
2022/11/22 02:24:56;;;;;;;0.20;0.20;;;5.40;39.90;;;;;;5065773;28;20438;-74
2022/11/22 02:27:25;;;;;;;0.33;0.33;;;5.40;36.40;;;;;;5066370;28;20423;-74
2022/11/22 02:29:52;;;;;;;0.40;0.40;;;5.40;56.90;;;;;;5064800;28;20442;-74
2022/11/22 02:32:19;;;;;;;0.57;0.43;;;5.40;57.40;;;;;;5063645;28;20426;-74
2022/11/22 02:34:49;;;;;;;0.10;0.10;;;5.30;59.70;;;;;;5055993;28;20436;-74
2022/11/22 02:37:26;;;;;;;0.22;0.22;;;5.30;82.60;;;;;;5062611;28;20508;-74
2022/11/22 02:40:00;;;;;;;0.20;0.20;;;5.30;99.90;;;;;;5062233;28;20909;-74
2022/11/22 02:42:29;;;;;;;0.40;0.40;;;5.30;99.90;;;;;;5057185;28;20440;-74
2022/11/22 02:44:56;;;;;;;0.20;0.20;;;5.30;99.90;;;;;;5058268;28;20554;-74
2022/11/22 02:47:22;;;;;;;0.30;0.30;;;5.40;99.90;;;;;;5056966;28;20932;-75
2022/11/22 02:49:52;;;;;;;0.30;0.30;;;5.40;99.90;;;;;;5057642;28;20435;-74
2022/11/22 02:52:19;;;;;;;0.60;0.60;;;5.30;99.90;;;;;;5065406;28;20523;-74
2022/11/22 02:54:46;;;;;;;0.45;0.45;;;5.30;99.90;;;;;;5055918;28;20429;-74
2022/11/22 02:57:15;;;;;;;1.50;0.90;;;5.30;99.90;;;;;;5076224;28;20475;-74
2022/11/22 02:59:43;;;;;;;0.65;0.65;;;5.30;99.90;;;;;;5065944;28;20502;-74
2022/11/22 03:02:10;;;;;;;0.38;0.38;;;5.20;99.90;;;;;;5062700;28;20429;-74
2022/11/22 03:04:37;;;;;;;0.35;0.35;;;5.20;99.90;;;;;;5060003;28;20428;-74
2022/11/22 03:07:04;;;;;;;0.65;0.65;;;5.20;99.90;;;;;;5081182;28;20439;-74
2022/11/22 03:09:31;;;;;;;0.40;0.40;;;5.20;99.90;;;;;;5065142;28;20659;-74
2022/11/22 03:11:58;;;;;;;0.15;0.15;;;5.10;99.90;;;;;;5063401;28;20429;-74
2022/11/22 03:14:25;;;;;;;0.52;0.45;;;5.10;99.90;;;;;;5064191;28;20516;-75
2022/11/22 03:16:52;;;;;;;0.22;0.22;;;5.10;99.90;;;;;;5066021;28;21089;-74
2022/11/22 03:19:19;;;;;;;0.45;0.45;;;5.10;99.90;;;;;;5061175;28;21200;-74
2022/11/22 03:21:46;;;;;;;0.30;0.30;;;5.10;99.90;;;;;;5057393;28;20512;-74
2022/11/22 03:24:13;;;;;;;0.38;0.38;;;5.00;99.90;;;;;;5065401;28;20424;-74
2022/11/22 03:26:39;;;;;;;0.40;0.40;;;5.10;99.90;;;;;;5064500;28;20434;-74
2022/11/22 03:29:06;;;;;;;0.70;0.30;;;5.10;99.90;;;;;;5065895;28;20423;-74
2022/11/22 03:31:33;;;;;;;0.20;0.20;;;5.10;99.90;;;;;;5052667;28;20476;-74
2022/11/22 03:34:00;;;;;;;0.60;0.60;;;5.20;99.90;;;;;;5059635;28;20477;-74
2022/11/22 03:36:26;;;;;;;0.15;0.15;;;5.30;99.90;;;;;;5063228;28;20514;-74
2022/11/22 03:38:56;;;;;;;0.13;0.13;;;5.30;99.90;;;;;;5065536;28;20484;-73
2022/11/22 03:41:22;;;;;;;0.60;0.40;;;5.30;99.90;;;;;;5063440;28;20442;-74
2022/11/22 03:43:49;;;;;;;0.60;0.57;;;5.30;99.90;;;;;;5062432;28;20759;-74
2022/11/22 03:46:18;;;;;;;0.40;0.40;;;5.30;99.90;;;;;;5064827;28;20427;-73
2022/11/22 03:48:45;;;;;;;0.50;0.50;;;5.30;99.90;;;;;;5059607;28;20432;-74
2022/11/22 03:51:13;;;;;;;1.00;0.30;;;5.30;99.90;;;;;;5061978;28;20431;-74
2022/11/22 03:53:39;;;;;;;0.80;0.50;;;5.40;99.90;;;;;;5062244;28;21097;-73
2022/11/22 03:56:06;;;;;;;0.35;0.35;;;5.40;99.90;;;;;;5068832;28;20455;-74
2022/11/22 03:58:33;;;;;;;0.37;0.37;;;5.40;99.90;;;;;;5062663;28;20497;-74
2022/11/22 04:01:00;;;;;;;0.40;0.40;;;5.50;99.90;;;;;;5068186;28;20439;-74
2022/11/22 04:03:27;;;;;;;1.00;1.00;;;5.40;99.90;;;;;;5067230;28;20446;-73
2022/11/22 04:05:54;;;;;;;0.60;0.40;;;5.30;99.90;;;;;;5069325;28;20435;-74
2022/11/22 04:08:21;;;;;;;0.20;0.20;;;5.20;99.90;;;;;;5062148;28;20441;-74
2022/11/22 04:10:49;;;;;;;0.45;0.30;;;5.20;99.90;;;;;;5067968;28;20424;-74
2022/11/22 04:13:16;;;;;;;0.20;0.20;;;5.10;99.90;;;;;;5063079;28;21030;-74
2022/11/22 04:15:43;;;;;;;0.43;0.35;;;5.10;99.90;;;;;;5067960;28;20468;-73
2022/11/22 04:18:11;;;;;;;0.20;0.20;;;4.90;99.90;;;;;;5061409;28;20429;-73
2022/11/22 04:23:25;;;;;;;0.30;0.30;;;4.90;99.90;;;;;;5058785;28;20815;-73
2022/11/22 04:25:59;;;;;;;0.47;0.47;;;4.80;99.90;;;;;;5065540;28;20962;-73
2022/11/22 04:28:26;;;;;;;0.60;0.30;;;4.80;99.90;;;;;;5073137;28;20469;-73
2022/11/22 04:33:58;;;;;;;0.40;0.40;;;4.70;99.90;;;;;;5068962;28;20435;-73
2022/11/22 04:36:25;;;;;;;0.20;0.20;;;4.60;99.90;;;;;;5069539;28;20519;-74
2022/11/22 04:38:52;;;;;;;0.55;0.55;;;4.50;99.90;;;;;;5066792;28;20435;-73
2022/11/22 04:41:19;;;;;;;0.50;0.20;;;4.40;99.90;;;;;;5068955;28;20558;-74
2022/11/22 04:46:30;;;;;;;0.30;0.30;;;4.20;99.90;;;;;;5069009;28;20451;-74
2022/11/22 04:48:57;;;;;;;0.30;0.30;;;4.20;99.90;;;;;;5069828;28;20778;-73
2022/11/22 04:54:12;;;;;;;0.30;0.30;;;4.20;99.90;;;;;;5062141;28;20806;-73
2022/11/22 04:56:39;;;;;;;0.30;0.30;;;4.10;99.90;;;;;;5062317;28;20495;-73
2022/11/22 04:59:06;;;;;;;1.73;0.77;;;4.00;99.90;;;;;;5069393;28;20559;-74
2022/11/22 05:01:33;;;;;;;0.40;0.40;;;4.00;99.90;;;;;;5075969;28;20534;-74
2022/11/22 05:03:59;;;;;;;0.40;0.40;;;3.90;99.90;;;;;;5063383;28;20422;-74
2022/11/22 05:06:26;;;;;;;0.20;0.20;;;3.80;99.90;;;;;;5069019;28;20423;-73
2022/11/22 05:08:53;;;;;;;0.40;0.40;;;3.90;99.90;;;;;;5062852;28;20430;-74
2022/11/22 05:11:19;;;;;;;0.47;0.47;;;4.00;99.90;;;;;;5070280;28;20488;-74
2022/11/22 05:13:46;;;;;;;0.60;0.40;;;4.00;99.90;;;;;;5061123;28;20482;-74
2022/11/22 05:16:14;;;;;;;0.30;0.30;;;3.90;99.90;;;;;;5065308;28;20436;-74
2022/11/22 05:18:41;;;;;;;0.28;0.20;;;3.80;99.90;;;;;;5069950;28;20898;-74
2022/11/22 05:21:11;;;;;;;0.10;0.10;;;3.70;99.90;;;;;;5067409;28;20431;-74
2022/11/22 05:23:55;;;;;;;0.30;0.30;;;3.60;99.90;;;;;;5055886;28;20432;-74
2022/11/22 05:26:27;;;;;;;0.10;0.10;;;3.70;99.90;;;;;;5062938;28;20423;-74
2022/11/22 05:28:57;;;;;;;0.30;0.10;;;4.00;99.90;;;;;;5069635;28;20428;-74
2022/11/22 05:31:26;;;;;;;1.80;0.20;;;4.30;99.90;;;;;;5049897;28;20438;-74
2022/11/22 05:33:55;;;;;;;0.28;0.15;;;4.30;99.90;;;;;;5068331;28;20489;-74
2022/11/22 05:36:23;;;;;;;0.15;0.15;;;4.30;99.90;;;;;;5061967;28;20437;-74
2022/11/22 05:38:50;;;;;;;0.28;0.28;;;4.20;99.90;;;;;;5061036;28;20514;-74
2022/11/22 05:41:18;;;;;;;0.20;0.20;;;4.10;99.90;;;;;;5060295;28;20508;-74
2022/11/22 05:43:45;;;;;;;0.10;0.10;;;4.00;99.90;;;;;;5063043;28;20424;-74
2022/11/22 05:46:17;;;;;;;0.10;0.10;;;3.90;99.90;;;;;;5066553;28;20917;-74
2022/11/22 05:48:51;;;;;;;0.40;0.40;;;3.80;99.90;;;;;;5071398;28;20465;-74
2022/11/22 05:51:20;;;;;;;0.40;0.30;;;3.80;99.90;;;;;;5062816;28;20435;-74
2022/11/22 05:53:47;;;;;;;0.20;0.20;;;3.60;99.90;;;;;;5074352;28;20429;-74
2022/11/22 05:56:20;;;;;;;0.10;0.10;;;3.60;99.90;;;;;;5066716;28;20423;-74
2022/11/22 05:58:47;;;;;;;0.20;0.20;;;3.50;99.90;;;;;;5085143;28;20428;-74
2022/11/22 06:01:19;;;;;;;0.88;0.57;;;3.60;99.90;;;;;;5055196;28;20433;-74
2022/11/22 06:03:47;;;;;;;0.30;0.30;;;3.60;99.90;;;;;;5056419;28;20444;-72
2022/11/22 06:06:15;;;;;;;0.10;0.10;;;3.70;99.90;;;;;;5057377;28;20481;-72
2022/11/22 06:08:45;;;;;;;0.20;0.20;;;3.80;99.90;;;;;;5064361;28;20444;-71
2022/11/22 06:11:18;;;;;;;0.17;0.17;;;3.90;99.90;;;;;;5059940;28;20434;-71
2022/11/22 06:13:47;;;;;;;0.10;0.10;;;4.00;99.90;;;;;;5058999;28;20436;-73
2022/11/22 06:16:14;;;;;;;0.10;0.10;;;4.10;99.90;;;;;;5062496;28;20857;-71
2022/11/22 06:18:44;;;;;;;0.60;0.10;;;4.20;99.90;;;;;;5060739;28;20442;-71
2022/11/22 06:21:19;;;;;;;1.00;0.25;;;4.20;99.90;;;;;;5057025;28;20457;-71
2022/11/22 06:23:46;;;;;;;0.08;0.08;;;4.30;99.90;;;;;;5055033;28;20435;-71
2022/11/22 06:26:16;;;;;;;0.23;0.23;;;4.20;99.90;;;;;;5063806;28;20415;-71
2022/11/22 06:28:44;;;;;;;0.13;0.13;;;4.20;99.90;;;;;;5064266;28;20431;-71
2022/11/22 06:31:13;;;;;;;0.40;0.20;;;4.10;99.90;;;;;;5055742;28;20420;-71
2022/11/22 06:33:41;;;;;;;0.10;0.10;;;4.00;99.90;;;;;;5069592;28;20450;-71
2022/11/22 06:36:13;;;;;;;0.20;0.20;;;4.00;99.90;;;;;;5057991;28;21033;-72
2022/11/22 06:38:42;;;;;;;0.40;0.40;;;4.00;99.90;;;;;;5056031;28;20437;-71
2022/11/22 06:41:11;;;;;;;0.20;0.20;;;4.00;99.90;;;;;;5056663;28;20435;-71
2022/11/22 06:43:41;;;;;;;0.40;0.22;;;4.00;99.90;;;;;;5055972;28;20429;-71
2022/11/22 06:46:25;;;;;;;0.08;0.08;;;4.10;99.90;;;;;;5054523;28;20943;-72
2022/11/22 06:48:52;;;;;;;1.90;0.50;;;4.30;99.90;;;;;;5059509;28;20844;-72
2022/11/22 06:51:21;;;;;;;0.10;0.10;;;4.40;99.90;;;;;;5062758;28;20432;-72
2022/11/22 06:53:49;;;;;;;0.20;0.20;;;4.50;99.90;;;;;;5058213;28;20435;-72
2022/11/22 06:56:26;;;;;;;0.35;0.35;;;4.50;99.90;;;;;;5061494;28;20435;-72
2022/11/22 06:58:53;;;;;;;0.10;0.10;;;4.50;99.90;;;;;;5054463;28;20476;-71
2022/11/22 07:01:23;;;;;;;0.20;0.20;;;4.50;99.90;;;;;;5065424;28;20449;-71
2022/11/22 07:03:51;;;;;;;0.70;0.40;;;4.50;99.90;;;;;;5045626;28;20530;-72
2022/11/22 07:06:19;;;;;;;0.10;0.10;;;4.50;99.90;;;;;;5058861;28;20428;-72
2022/11/22 07:08:46;;;;;;;0.20;0.20;;;4.60;99.90;;;;;;5056130;28;20950;-72
2022/11/22 07:11:27;;;;;;;0.20;0.20;;;4.60;99.90;;;;;;5058374;28;20482;-72
2022/11/22 07:13:55;;;;;;;4.90;0.40;;;4.60;99.90;;;;;;5058159;28;20434;-72
2022/11/22 07:16:31;;;;;;;0.20;0.13;;;4.70;99.90;;;;;;5048228;28;21000;-72
2022/11/22 07:18:59;;;;;;;0.20;0.20;;;4.70;99.90;;;;;;5060949;28;20433;-72
2022/11/22 07:21:26;;;;;;;0.40;0.20;;;4.80;99.90;;;;;;5055033;28;20433;-72
2022/11/22 07:23:55;;;;;;;0.10;0.10;;;4.80;99.90;;;;;;5061915;28;20465;-72
2022/11/22 07:26:25;;;;;;;0.50;0.20;;;4.90;99.90;;;;;;5070116;28;20897;-72
2022/11/22 07:28:52;;;;;;;0.20;0.20;;;4.90;99.90;;;;;;5066581;28;20550;-72
2022/11/22 07:31:20;;;;;;;0.00;0.00;;;4.90;99.90;;;;;;5064897;28;20430;-72
2022/11/22 07:33:47;;;;;;;2.50;0.30;;;4.90;99.90;;;;;;5056789;28;20473;-72
2022/11/22 07:36:16;;;;;;;0.10;0.10;;;5.00;99.90;;;;;;5060787;28;20933;-72
2022/11/22 07:38:43;;;;;;;0.13;0.13;;;5.10;99.90;;;;;;5063716;28;20506;-72
2022/11/22 07:41:09;;;;;;;0.20;0.20;;;5.10;99.90;;;;;;5067079;28;20518;-72
2022/11/22 07:43:36;;;;;;;0.40;0.13;;;5.20;99.90;;;;;;5061357;28;20441;-72
2022/11/22 07:46:06;;;;;;;0.20;0.20;;;5.30;99.90;;;;;;5067047;28;20429;-72
2022/11/22 07:48:34;;;;;;;0.55;0.52;;;5.30;99.90;;;;;;5063160;28;20457;-72
2022/11/22 07:51:05;;;;;;;0.70;0.50;;;5.40;99.90;;;;;;5057113;28;20438;-72
2022/11/22 07:53:33;;;;;;;0.70;0.50;;;5.50;99.90;;;;;;5060327;28;20437;-72
2022/11/22 07:56:04;;;;;;;0.55;0.17;;;5.50;99.90;;;;;;5059346;28;21059;-72
2022/11/22 07:58:32;;;;;;;0.70;0.70;;;5.50;99.90;;;;;;5061089;28;20436;-73
2022/11/22 08:01:13;;;;;;;0.20;0.20;;;5.50;99.90;;;;;;5059753;28;20430;-73
2022/11/22 08:03:40;;;;;;;1.40;0.70;;;5.50;80.80;;;;;;5059017;28;20476;-72
2022/11/22 08:06:09;;;;;;;0.60;0.60;;;5.60;1.00;;;;;;5068928;28;20922;-72
2022/11/22 08:08:36;;;;;;;0.10;0.10;;;5.60;1.00;;;;;;5060673;28;21140;-73
2022/11/22 08:11:04;;;;;;;3.00;0.80;;;5.60;1.00;;;;;;5055830;28;20468;-73
2022/11/22 08:13:32;;;;;;;0.20;0.20;;;5.60;1.00;;;;;;5066939;28;20467;-72
2022/11/22 08:16:05;;;;;;;0.20;0.20;;;5.70;99.90;;;;;;5057485;28;20456;-73
2022/11/22 08:18:33;;;;;;;0.10;0.10;;;5.70;99.90;;;;;;5061691;28;20527;-73
2022/11/22 08:21:08;;;;;;;0.60;0.40;;;5.80;99.90;;;;;;5060626;28;20440;-72
2022/11/22 08:23:39;;;;;;;0.40;0.40;;;5.90;99.90;;;;;;5059345;28;20433;-72
2022/11/22 08:26:08;;;;;;;0.30;0.30;;;5.90;99.90;;;;;;5058921;28;20419;-72
2022/11/22 08:28:35;;;;;;;0.30;0.30;;;6.00;99.90;;;;;;5056848;28;20915;-72
2022/11/22 08:31:13;;;;;;;0.30;0.30;;;6.00;99.90;;;;;;5059675;28;20613;-73
2022/11/22 08:33:40;;;;;;;0.30;0.20;;;6.00;99.90;;;;;;5059645;28;20425;-74
2022/11/22 08:36:07;;;;;;;0.30;0.30;;;6.10;99.90;;;;;;5069797;28;20423;-73
2022/11/22 08:38:34;;;;;;;4.60;0.60;;;6.30;99.90;;;;;;5047285;28;20429;-74
2022/11/22 08:41:03;;;;;;;0.20;0.20;;;6.30;99.90;;;;;;5055832;28;20432;-73
2022/11/22 08:43:30;;;;;;;0.80;0.80;;;6.20;99.90;;;;;;5057303;28;20424;-73
2022/11/22 08:45:58;;;;;;;0.20;0.20;;;6.30;99.90;;;;;;5058069;28;20433;-73
2022/11/22 08:48:25;;;;;;;0.20;0.20;;;6.30;99.90;;;;;;5060396;28;20455;-73
2022/11/22 08:50:54;;;;;;;1.65;0.63;;;6.30;99.90;;;;;;5057483;28;20890;-73
2022/11/22 08:53:21;;;;;;;0.32;0.32;;;6.40;99.90;;;;;;5070386;28;20434;-74
2022/11/22 08:55:48;;;;;;;3.25;0.55;;;6.40;99.90;;;;;;5058745;28;20488;-73
2022/11/22 08:58:15;;;;;;;0.10;0.10;;;6.40;99.90;;;;;;5069110;28;20457;-73
2022/11/22 09:00:41;;;;;;;2.45;0.73;;;6.50;99.90;;;;;;5060946;28;20438;-74
2022/11/22 09:03:09;;;;;;;3.15;0.45;;;6.50;99.90;;;;;;5050691;28;20433;-74
2022/11/22 09:05:36;;;;;;;0.50;0.50;;;6.60;99.90;;;;;;5061187;28;20874;-74
2022/11/22 09:08:23;;;;;;;0.35;0.35;;;6.70;99.90;;;;;;5063923;28;20424;-73
2022/11/22 09:10:50;;;;;;;0.80;0.55;;;6.70;99.90;;;;;;5057538;28;20974;-74
2022/11/22 09:13:16;;;;;;;0.85;0.40;;;6.80;99.90;;;;;;5053855;28;20429;-73
2022/11/22 09:15:43;;;;;;;0.20;0.20;;;6.90;99.90;;;;;;5054657;28;20810;-74
2022/11/22 09:18:10;;;;;;;0.30;0.30;;;6.90;99.90;;;;;;5055147;28;20439;-73
2022/11/22 09:20:37;;;;;;;0.28;0.28;;;7.00;99.90;;;;;;5055109;28;20468;-74
2022/11/22 09:23:04;;;;;;;0.10;0.10;;;7.00;99.90;;;;;;5059588;28;20439;-74
2022/11/22 09:25:31;;;;;;;0.40;0.30;;;7.10;99.90;;;;;;5063286;28;20949;-74
2022/11/22 09:28:01;;;;;;;0.32;0.32;;;7.20;99.90;;;;;;5045465;28;20431;-74
2022/11/22 09:30:29;;;;;;;1.10;0.40;;;7.40;99.90;;;;;;5041044;28;20516;-74
2022/11/22 09:32:56;;;;;;;0.20;0.20;;;7.40;99.90;;;;;;5050029;28;20437;-74
2022/11/22 09:35:23;;;;;;;0.40;0.40;;;7.60;99.90;;;;;;5053244;28;20474;-74
2022/11/22 09:37:49;;;;;;;1.20;0.30;;;7.70;99.90;;;;;;5062300;28;20435;-74
2022/11/22 09:40:16;;;;;;;0.40;0.40;;;7.80;99.90;;;;;;5066934;28;20439;-74
2022/11/22 09:43:10;;;;;;;2.40;0.40;;;7.90;99.90;;;;;;5054340;28;20436;-74
2022/11/22 09:46:09;;;;;;;0.47;0.40;;;8.10;99.90;;;;;;5053097;28;20451;-75
2022/11/22 09:48:44;;;;;;;3.65;0.60;;;8.00;99.90;;;;;;5054711;28;21128;-74
2022/11/22 09:51:22;;;;;;;0.20;0.20;;;7.90;99.90;;;;;;5063499;28;20434;-74
2022/11/22 09:54:03;;;;;;;2.25;0.40;;;7.70;99.90;;;;;;5060690;28;20431;-75
2022/11/22 09:56:40;;;;;;;4.65;0.73;;;7.60;99.90;;;;;;5066455;28;21883;-75
2022/11/22 09:59:19;;;;;;;0.30;0.30;;;7.70;99.90;;;;;;5067528;28;20436;-74
2022/11/22 10:02:11;;;;;;;0.30;0.30;;;7.70;99.90;;;;;;5060162;28;21064;-73
2022/11/22 10:04:52;;;;;;;0.60;0.40;;;7.60;99.90;;;;;;5066870;28;20506;-73
2022/11/22 10:07:34;;;;;;;0.52;0.32;;;7.50;99.90;;;;;;5057677;28;20427;-75
2022/11/22 10:10:25;;;;;;;0.30;0.30;;;7.40;99.90;;;;;;5065095;28;20423;-73
2022/11/22 10:13:01;;;;;;;0.30;0.30;;;7.40;99.90;;;;;;5060244;28;20519;-73
2022/11/22 10:16:05;;;;;;;0.30;0.30;;;7.20;99.90;;;;;;5060751;28;20431;-73
2022/11/22 10:18:48;;;;;;;0.17;0.17;;;7.20;99.90;;;;;;5052219;28;20427;-72
2022/11/22 10:21:18;;;;;;;0.30;0.30;;;7.20;99.90;;;;;;5060027;28;21166;-72
2022/11/22 10:23:47;;;;;;;0.30;0.30;;;7.10;99.90;;;;;;5056409;28;20491;-72
2022/11/22 10:26:24;;;;;;;0.30;0.30;;;7.20;99.90;;;;;;5060016;28;20909;-72
2022/11/22 10:29:12;;;;;;;0.30;0.30;;;7.30;99.90;;;;;;5064134;28;20509;-72
2022/11/22 10:31:42;;;;;;;1.02;0.45;;;7.30;99.90;;;;;;5062578;28;20458;-72
2022/11/22 10:34:33;;;;;;;0.60;0.25;;;7.50;99.90;;;;;;5060071;28;20433;-72
2022/11/22 10:37:14;;;;;;;0.30;0.30;;;7.60;99.90;;;;;;5057298;28;20477;-74
2022/11/22 10:39:59;;;;;;;0.30;0.30;;;7.50;99.90;;;;;;5057555;28;20435;-73
2022/11/22 10:42:56;;;;;;;0.80;0.40;;;7.50;99.90;;;;;;5062000;28;20842;-73
2022/11/22 10:45:27;;;;;;;2.97;0.70;;;7.40;99.90;;;;;;5054794;28;21188;-73
2022/11/22 10:48:18;;;;;;;0.40;0.32;;;7.30;99.90;;;;;;5062240;28;20434;-74
2022/11/22 10:50:54;;;;;;;0.70;0.30;;;7.40;99.90;;;;;;5067086;28;20427;-73
2022/11/22 10:53:46;;;;;;;0.20;0.20;;;7.40;99.90;;;;;;5064797;28;20801;-73
2022/11/22 10:56:34;;;;;;;1.23;0.50;;;7.60;99.90;;;;;;5060989;28;20439;-73
2022/11/22 10:59:39;;;;;;;0.20;0.20;;;7.80;99.90;;;;;;5054516;28;20462;-72
2022/11/22 11:02:44;;;;;;;0.20;0.20;;;7.80;99.90;;;;;;5049299;28;20475;-73
2022/11/22 11:05:16;;;;;;;0.40;0.40;;;7.80;99.90;;;;;;5060450;28;20852;-73
2022/11/22 11:07:48;;;;;;;0.20;0.20;;;8.00;99.90;;;;;;5061890;28;20937;-73
2022/11/22 11:10:18;;;;;;;0.35;0.22;;;8.10;99.90;;;;;;5054595;28;20446;-72
2022/11/22 11:13:05;;;;;;;0.20;0.20;;;8.00;99.90;;;;;;5066771;28;20442;-73
2022/11/22 11:15:46;;;;;;;0.40;0.40;;;7.90;99.90;;;;;;5068498;28;20488;-72
2022/11/22 11:18:31;;;;;;;0.20;0.20;;;7.90;99.90;;;;;;5061347;28;20441;-73
2022/11/22 11:20:58;;;;;;;0.20;0.20;;;7.80;99.90;;;;;;5062894;28;20437;-73
2022/11/22 11:23:25;;;;;;;0.30;0.30;;;7.70;99.90;;;;;;5054315;28;20435;-73
2022/11/22 11:25:52;;;;;;;0.30;0.30;;;7.70;99.90;;;;;;5062660;28;20436;-73
2022/11/22 11:28:23;;;;;;;6.10;0.40;;;7.80;99.90;;;;;;5054248;28;20483;-74
2022/11/22 11:30:51;;;;;;;0.20;0.20;;;7.90;99.90;;;;;;5061433;28;20489;-73
2022/11/22 11:33:22;;;;;;;0.40;0.40;;;8.00;99.90;;;;;;5065798;28;20518;-73
2022/11/22 11:35:54;;;;;;;0.20;0.20;;;7.90;99.90;;;;;;5056798;28;20429;-73
2022/11/22 11:38:29;;;;;;;0.30;0.30;;;7.90;99.90;;;;;;5062232;28;20561;-73
2022/11/22 11:40:56;;;;;;;0.95;0.35;;;7.70;99.90;;;;;;5062203;28;20431;-73
2022/11/22 11:43:26;;;;;;;0.20;0.20;;;7.80;99.90;;;;;;5057687;28;20514;-73
2022/11/22 11:45:53;;;;;;;0.30;0.30;;;7.80;99.90;;;;;;5058784;28;20427;-73
2022/11/22 11:48:39;;;;;;;1.10;0.30;;;7.80;99.90;;;;;;5050668;28;20421;-73
2022/11/22 11:51:13;;;;;;;0.20;0.20;;;7.80;99.90;;;;;;5050596;28;20433;-73
2022/11/22 11:53:48;;;;;;;0.40;0.40;;;7.90;99.90;;;;;;5059482;28;20434;-72
2022/11/22 11:56:53;;;;;;;0.60;0.40;;;7.80;99.90;;;;;;5065031;28;20439;-72
2022/11/22 11:59:26;;;;;;;0.20;0.20;;;7.80;99.90;;;;;;5059131;28;21133;-72
2022/11/22 12:02:24;;;;;;;1.00;0.30;;;7.90;99.90;;;;;;5077053;28;20433;-72
2022/11/22 12:04:57;;;;;;;0.20;0.20;;;7.90;99.90;;;;;;5059836;28;20443;-72
2022/11/22 12:07:37;;;;;;;0.10;0.10;;;8.00;99.90;;;;;;5053771;28;20452;-72
2022/11/22 12:10:29;;;;;;;2.50;0.90;;;8.00;99.90;;;;;;5056453;28;21180;-72
2022/11/22 12:13:20;;;;;;;0.90;0.40;;;8.20;99.90;;;;;;5053429;28;20430;-72
2022/11/22 12:16:08;;;;;;;0.30;0.30;;;8.40;99.90;;;;;;5058855;28;20427;-73
2022/11/22 12:18:53;;;;;;;1.52;0.22;;;8.60;99.90;;;;;;5058860;28;20488;-73
2022/11/22 12:21:38;;;;;;;0.25;0.25;;;8.60;99.90;;;;;;5056700;28;20506;-72
2022/11/22 12:24:23;;;;;;;0.20;0.20;;;8.80;99.90;;;;;;5055817;28;20427;-73
2022/11/22 12:27:11;;;;;;;0.30;0.30;;;8.60;99.90;;;;;;5070911;28;20485;-72
2022/11/22 12:29:42;;;;;;;0.20;0.20;;;8.50;99.90;;;;;;5060415;28;20433;-73
2022/11/22 12:32:26;;;;;;;0.35;0.28;;;8.30;99.90;;;;;;5061679;28;20450;-72
2022/11/22 12:34:59;;;;;;;0.20;0.20;;;8.30;99.90;;;;;;5062652;28;20433;-73
2022/11/22 12:37:38;;;;;;;0.30;0.30;;;8.30;99.90;;;;;;5062077;28;20439;-75
2022/11/22 12:40:33;;;;;;;0.40;0.40;;;8.30;99.90;;;;;;5063076;28;20858;-73
2022/11/22 12:43:24;;;;;;;0.30;0.30;;;8.20;99.90;;;;;;5066627;28;20935;-73
2022/11/22 12:46:03;;;;;;;0.38;0.38;;;8.10;99.90;;;;;;5062007;28;20466;-73
2022/11/22 12:48:57;;;;;;;0.20;0.20;;;8.20;99.90;;;;;;5060234;28;20962;-73
2022/11/22 12:51:41;;;;;;;0.20;0.20;;;8.20;99.90;;;;;;5063847;28;20437;-72
2022/11/22 12:54:34;;;;;;;0.40;0.40;;;8.10;99.90;;;;;;5057622;28;20836;-73
2022/11/22 12:57:09;;;;;;;0.50;0.50;;;8.10;99.90;;;;;;5061521;28;20467;-73
2022/11/22 13:00:03;;;;;;;0.30;0.30;;;8.10;99.90;;;;;;5067807;28;21063;-74
2022/11/22 13:02:48;;;;;;;2.60;0.30;;;8.20;99.90;;;;;;5066844;28;20456;-74
2022/11/22 13:05:25;;;;;;;0.20;0.20;;;8.20;99.90;;;;;;5064992;28;20564;-74
2022/11/22 13:08:15;;;;;;;0.30;0.30;;;8.30;99.90;;;;;;5062584;28;20431;-73
2022/11/22 13:10:59;;;;;;;16.48;0.80;;;8.30;99.90;;;;;;5058571;28;20420;-73
2022/11/22 13:13:45;;;;;;;0.20;0.20;;;8.30;99.90;;;;;;5063355;28;20431;-73
2022/11/22 13:16:13;;;;;;;0.20;0.20;;;8.20;99.90;;;;;;5055942;28;20439;-73
2022/11/22 13:19:03;;;;;;;0.20;0.20;;;8.30;99.90;;;;;;5061127;28;20801;-74
2022/11/22 13:21:51;;;;;;;0.50;0.10;;;8.30;99.90;;;;;;5069727;28;20428;-73
2022/11/22 13:24:56;;;;;;;0.50;0.40;;;8.10;99.90;;;;;;5064438;28;20425;-74
2022/11/22 13:27:58;;;;;;;0.90;0.40;;;8.00;99.90;;;;;;5043340;28;20434;-73
2022/11/22 13:30:27;;;;;;;0.20;0.20;;;8.00;99.90;;;;;;5041328;28;20950;-73
2022/11/22 13:32:58;;;;;;;0.20;0.20;;;8.00;99.90;;;;;;5048653;28;20516;-74
2022/11/22 13:35:35;;;;;;;0.20;0.20;;;8.00;99.90;;;;;;5041870;28;21244;-73